Terminal Aerodrome Forecast
Issued by NWS Norman, OK

Home | Current Version | Previous Version | Text Only | Print | Product List | Glossary On
Versions: 1 2 3 4 5 6 7 8 9 10 11 12 13 14 15 16 17 18 19
000
FTUS44 KOUN 241139
TAFOKC
TAF
KOKC 241139Z 2412/2512 36005KT 2SM -DZ BR SCT003 OVC008
      TEMPO 2412/2414 1/2SM DZ FG OVC003
     FM241400 33008KT 3SM -TSRA BR OVC008CB
     FM241700 29013KT P6SM BKN015
     FM242300 33010KT P6SM SCT250=

USA.gov is the U.S. government's official web portal to all federal, state and local government web resources and services.